Flight Track Log - Related Links

Times and Time Zones

All times are in EDT time to prevent confusion due to time zone crossing. See the KAP82 flight status page for this flight to view local times or setup timezone preferences in your user account.


Time Position Orientation Groundspeed Altitude Reporting Facility
EDT Latitude Longitude Course Direction KTS MPH feet Rate Location/Type
Wed 05:20:15 PM 42.3833 -71.0000 324° Northwest 96 110 400  Level KA90
Wed 05:20:57 PM 42.4000 -71.0167 324° Northwest 124 143 800 529 Climbing KA90
Wed 05:21:57 PM 42.4167 -71.0500 304° West 128 147 1,300 550 Climbing KA90
Wed 05:22:57 PM 42.4000 -71.1000 246° West 125 144 1,900 600 Climbing KA90
Wed 05:23:57 PM 42.4000 -71.1500 270° West 127 146 2,500 571 Climbing KA90
Wed 05:25:03 PM 42.3833 -71.2000 246° West 128 147 3,100 524 Climbing KA90
Wed 05:26:03 PM 42.3833 -71.2500 270° West 128 147 3,600 500 Climbing KA90
Wed 05:27:03 PM 42.3667 -71.2833 236° Southwest 127 146 4,100 500 Climbing KA90
Wed 05:28:03 PM 42.3667 -71.3333 270° West 132 152 4,600 550 Climbing KA90
Wed 05:29:03 PM 42.3500 -71.3833 246° West 131 151 5,200 526 Climbing KA90
Wed 05:29:57 PM 42.3500 -71.4333 270° West 130 150 5,600 416 Climbing KA90
Wed 05:30:44 PM 42.3336 -71.4683 238° Southwest 128 147 5,900 416 Climbing Boston Center
Wed 05:31:38 PM 42.3258 -71.5106 256° West 130 150 6,300 470 Climbing Boston Center
Wed 05:32:39 PM 42.3156 -71.5586 254° West 133 153 6,800 522 Climbing Boston Center
Wed 05:33:33 PM 42.3036 -71.6064 251° West 137 158 7,300 470 Climbing Boston Center
Wed 05:34:34 PM 42.2933 -71.6542 254° West 136 157 7,700 347 Climbing Boston Center
Wed 05:35:34 PM 42.2772 -71.7050 247° West 147 169 8,000 198 Climbing Boston Center
Wed 05:36:35 PM 42.2608 -71.7583 247° West 158 182 8,100  Climbing Boston Center
Wed 05:37:35 PM 42.2467 -71.8175 252° West 166 191 8,000 -49 Descending Boston Center
Wed 05:38:38 PM 42.2322 -71.8764 252° West 165 190 8,000  Level Boston Center
Wed 05:39:36 PM 42.2283 -71.9383 265° West 161 185 8,000  Level Boston Center
Wed 05:40:39 PM 42.2453 -71.9942 292° West 158 182 8,000 49 Level Boston Center
Wed 05:41:38 PM 42.2517 -72.0531 278° West 174 200 8,100  Climbing Boston Center
Wed 05:42:40 PM 42.2394 -72.1147 255° West 174 200 8,000 -49 Descending Boston Center
Wed 05:43:40 PM 42.2208 -72.1739 247° West 166 191 8,000  Level Boston Center
Wed 05:44:41 PM 42.2064 -72.2269 250° West 161 185 8,000  Level Boston Center
Wed 05:45:41 PM 42.1856 -72.2831 243° Southwest 157 181 8,000  Level Boston Center
Wed 05:46:42 PM 42.1939 -72.3392 281° West 156 180 8,000  Level Boston Center
Wed 05:47:43 PM 42.2150 -72.3925 298° West 156 180 8,000  Level Boston Center
Wed 05:48:43 PM 42.2358 -72.4428 299° West 157 181 8,000  Level Boston Center
Wed 05:49:44 PM 42.2544 -72.4989 294° West 160 184 8,000  Level Boston Center
Wed 05:50:44 PM 42.2753 -72.5494 299° West 160 184 8,000  Level Boston Center
Wed 05:51:45 PM 42.2919 -72.6083 291° West 154 177 8,000  Level Boston Center
Wed 05:52:46 PM 42.3064 -72.6619 290° West 149 171 8,000  Level Boston Center
Wed 05:53:47 PM 42.3189 -72.7153 288° West 153 176 8,000  Level Boston Center
Wed 05:54:48 PM 42.3311 -72.7714 286° West 155 178 8,000  Level Boston Center
Wed 05:55:45 PM 42.3581 -72.8194 307° West 158 182 8,000  Level Boston Center
Wed 05:56:46 PM 42.3789 -72.8672 301° West 157 181 8,000  Level Boston Center
Wed 05:57:46 PM 42.3931 -72.9236 289° West 159 183 8,000 50 Level Boston Center
Wed 05:58:47 PM 42.4136 -72.9772 297° West 161 185 8,100 49 Climbing Boston Center
Wed 05:59:48 PM 42.4364 -73.0336 299° West 166 191 8,100  Level Boston Center
Wed 06:00:49 PM 42.4653 -73.0903 305° West 170 196 8,100 -50 Level Boston Center
Wed 06:01:47 PM 42.4836 -73.1467 294° West 176 203 8,000 -100 Descending Boston Center
Wed 06:02:49 PM 42.5106 -73.1978 306° West 168 193 7,900 -634 Descending Boston Center
Wed 06:03:50 PM 42.5350 -73.2600 298° West 194 223 6,700 -992 Descending Boston Center
Wed 06:04:50 PM 42.5575 -73.3281 294° West 205 236 5,900 -843 Descending Boston Center
Wed 06:05:51 PM 42.5778 -73.3986 291° West 197 227 5,000 -836 Descending Boston Center
Wed 06:06:52 PM 42.5958 -73.4722 288° West 192 221 4,200 -470 Descending Boston Center
Wed 06:07:46 PM 42.6119 -73.5233 293° West 180 207 4,100 -157 Descending Boston Center
Wed 06:08:47 PM 42.6344 -73.5775 299° West 156 180 3,900 -344 Descending Boston Center
Wed 06:09:48 PM 42.6525 -73.6369 292° West 176 203 3,400 -793 Descending Boston Center
Wed 06:10:48 PM 42.6747 -73.6997 296° West 181 208 2,300 -850 Descending Boston Center
Wed 06:11:55 PM 42.6950 -73.7594 299° West 162 186 1,600 -756 Descending Boston Center
Wed 06:12:00 PM 42.7110 -73.7441 299° West  Level FlightAware Approximate
Wed 06:12:55 PM 42.7214 -73.8050 308° West 144 166 700  Level Boston Center
Wed 06:15:00 PM 42.7333 -73.8000 299° West  Level FlightAware Approximate
Wed 06:22:00 PM 42.7491 -73.8020 299° West  Level Estimated
Wed 06:23:00 PM 42.7491 -73.8020 299° West  Level Estimated

Login

Don't have an account? Register now (free) for customized features, flight alerts, and more!